Time;durP1;ratioP1;P1;durP2;ratioP2;P2;SDS_P1;SDS_P2;PMS_P1;PMS_P2;Temp;Humidity;BMP_temperature;BMP_pressure;BME280_temperature;BME280_humidity;BME280_pressure;Samples;Min_cycle;Max_cycle;Signal;HPM_P1;HPM_P2
2023/01/27 00:01:03;;;;;;;;;;;;;;;25.25;31.50;94249.56;4957962;28;1431;-65
2023/01/27 00:03:28;;;;;;;;;;;;;;;25.35;31.28;94252.31;4985136;28;1406;-64
2023/01/27 00:05:53;;;;;;;;;;;;;;;25.46;31.12;94255.09;4967475;28;1474;-63
2023/01/27 00:08:19;;;;;;;;;;;;;;;25.48;31.19;94248.44;5005149;28;1870;-64
2023/01/27 00:10:44;;;;;;;;;;;;;;;25.46;31.15;94244.38;4974135;28;1434;-64
2023/01/27 00:13:25;;;;;;;;;;;;;;;25.41;31.45;94244.31;4967579;28;1285;-64
2023/01/27 00:15:51;;;;;;;;;;;;;;;25.43;31.60;94243.00;4962329;28;1612;-65
2023/01/27 00:18:17;;;;;;;;;;;;;;;25.49;31.41;94238.50;4968105;28;1481;-64
2023/01/27 00:26:27;;;;;;;;;;;;;;;25.47;31.27;94217.28;4973106;28;1408;-67
2023/01/27 00:28:52;;;;;;;;;;;;;;;25.53;31.53;94218.13;4968007;28;1903;-65
2023/01/27 00:34:07;;;;;;;;;;;;;;;25.55;31.63;94224.03;4975508;28;1326;-65
2023/01/27 00:36:37;;;;;;;;;;;;;;;25.47;31.80;94225.34;4974923;28;1519;-66
2023/01/27 00:39:03;;;;;;;;;;;;;;;25.51;31.75;94222.94;4966813;28;1371;-64
2023/01/27 00:41:28;;;;;;;;;;;;;;;25.56;31.84;94214.94;4991488;28;1328;-65
2023/01/27 00:43:54;;;;;;;;;;;;;;;25.57;31.75;94225.41;4974704;28;1361;-66
2023/01/27 00:46:20;;;;;;;;;;;;;;;25.63;31.67;94231.63;4975644;28;1496;-64
2023/01/27 00:48:46;;;;;;;;;;;;;;;25.67;31.48;94227.38;4976185;28;1973;-65
2023/01/27 00:51:12;;;;;;;;;;;;;;;25.63;31.55;94236.19;4981275;28;1366;-65
2023/01/27 00:53:37;;;;;;;;;;;;;;;25.62;31.47;94238.06;4989030;28;1439;-66
2023/01/27 00:56:04;;;;;;;;;;;;;;;25.65;31.59;94239.44;4991306;28;1451;-65
2023/01/27 00:58:29;;;;;;;;;;;;;;;25.67;31.69;94232.75;4975748;28;1350;-65
2023/01/27 01:00:58;;;;;;;;;;;;;;;25.61;31.77;94233.75;4971366;28;1496;-64
2023/01/27 01:03:24;;;;;;;;;;;;;;;25.65;31.71;94228.69;4969390;28;1261;-65
2023/01/27 01:05:49;;;;;;;;;;;;;;;25.69;32.02;94230.59;4975873;28;1416;-64
2023/01/27 01:08:15;;;;;;;;;;;;;;;25.70;31.68;94226.88;4980062;28;1906;-64
2023/01/27 01:10:41;;;;;;;;;;;;;;;25.63;31.65;94215.50;4974429;28;1455;-64
2023/01/27 01:13:08;;;;;;;;;;;;;;;25.70;31.56;94217.97;4964285;28;1507;-65
2023/01/27 01:15:35;;;;;;;;;;;;;;;25.71;32.02;94217.72;4971544;28;1203;-66
2023/01/27 01:18:00;;;;;;;;;;;;;;;25.75;31.95;94218.81;4995108;28;1492;-64
2023/01/27 01:20:25;;;;;;;;;;;;;;;25.70;31.97;94218.81;4975463;28;1403;-66
2023/01/27 01:22:51;;;;;;;;;;;;;;;25.68;32.16;94225.50;4973689;28;1236;-67
2023/01/27 01:25:16;;;;;;;;;;;;;;;25.72;31.99;94230.09;4965402;28;1399;-63
2023/01/27 01:27:43;;;;;;;;;;;;;;;25.71;32.26;94220.41;4975284;28;1965;-65
2023/01/27 01:30:09;;;;;;;;;;;;;;;25.69;32.28;94208.31;4990150;28;1478;-63
2023/01/27 01:32:34;;;;;;;;;;;;;;;25.70;32.12;94215.28;4974824;28;1284;-64
2023/01/27 01:34:59;;;;;;;;;;;;;;;25.74;32.23;94216.41;4985542;28;1502;-64
2023/01/27 01:37:25;;;;;;;;;;;;;;;25.73;31.78;94226.34;4969944;28;1452;-65
2023/01/27 01:39:50;;;;;;;;;;;;;;;25.72;32.41;94246.19;4989920;28;1545;-65
2023/01/27 01:42:16;;;;;;;;;;;;;;;25.68;32.51;94250.47;4973090;28;1436;-66
2023/01/27 01:44:42;;;;;;;;;;;;;;;25.72;32.55;94253.44;4973731;28;1481;-66
2023/01/27 01:47:09;;;;;;;;;;;;;;;25.72;32.55;94240.81;4965615;28;1981;-65
2023/01/27 01:49:46;;;;;;;;;;;;;;;25.69;32.49;94229.78;4975130;28;1403;-65
2023/01/27 01:52:22;;;;;;;;;;;;;;;25.76;32.19;94225.03;4977548;28;1431;-67
2023/01/27 01:54:53;;;;;;;;;;;;;;;25.77;32.41;94211.31;4974833;28;1394;-66
2023/01/27 01:57:21;;;;;;;;;;;;;;;25.75;32.72;94208.06;4973684;28;1364;-67
2023/01/27 01:59:51;;;;;;;;;;;;;;;25.80;32.28;94210.81;4982618;28;1257;-65
2023/01/27 02:02:20;;;;;;;;;;;;;;;25.79;32.53;94195.75;4973568;28;1463;-65
2023/01/27 02:05:06;;;;;;;;;;;;;;;25.76;32.26;94188.22;4989613;28;1496;-65
2023/01/27 02:07:42;;;;;;;;;;;;;;;25.80;32.28;94178.56;4974585;28;1969;-65
2023/01/27 02:10:08;;;;;;;;;;;;;;;25.79;32.29;94174.25;4964839;28;1323;-65
2023/01/27 02:12:34;;;;;;;;;;;;;;;25.80;32.30;94167.81;4988338;28;1529;-65
2023/01/27 02:14:59;;;;;;;;;;;;;;;25.79;32.10;94163.53;4974669;28;1308;-65
2023/01/27 02:17:24;;;;;;;;;;;;;;;25.83;32.33;94160.34;4974522;28;1462;-65
2023/01/27 02:20:01;;;;;;;;;;;;;;;25.80;32.45;94157.06;4974550;28;1463;-65
2023/01/27 02:22:38;;;;;;;;;;;;;;;25.83;32.60;94160.34;4969109;28;1245;-66
2023/01/27 02:25:11;;;;;;;;;;;;;;;25.77;33.16;94168.34;4970972;28;1434;-66
2023/01/27 02:27:36;;;;;;;;;;;;;;;25.77;32.94;94165.66;4972860;28;1935;-65
2023/01/27 02:30:02;;;;;;;;;;;;;;;25.85;32.97;94158.22;4974413;28;1509;-65
2023/01/27 02:32:27;;;;;;;;;;;;;;;25.83;32.85;94163.03;4963378;28;1331;-64
2023/01/27 02:34:54;;;;;;;;;;;;;;;25.85;32.90;94153.66;4973918;28;1461;-65
2023/01/27 02:37:20;;;;;;;;;;;;;;;25.86;32.95;94154.44;4974409;28;1372;-65
2023/01/27 02:39:45;;;;;;;;;;;;;;;25.84;33.10;94162.75;4974195;28;1412;-64
2023/01/27 02:42:15;;;;;;;;;;;;;;;25.87;33.15;94156.06;4972911;28;1317;-64
2023/01/27 02:44:40;;;;;;;;;;;;;;;25.82;33.37;94164.06;4964267;28;1471;-65
2023/01/27 02:47:05;;;;;;;;;;;;;;;25.83;33.72;94165.72;4989253;28;1918;-65
2023/01/27 02:49:31;;;;;;;;;;;;;;;25.84;33.74;94165.44;4974428;28;1419;-66
2023/01/27 02:51:56;;;;;;;;;;;;;;;25.92;33.38;94180.28;4973348;28;1364;-68
2023/01/27 02:54:23;;;;;;;;;;;;;;;25.97;33.41;94177.63;4968407;28;1468;-67
2023/01/27 02:56:48;;;;;;;;;;;;;;;26.00;32.96;94179.78;4969698;28;1184;-67
2023/01/27 02:59:13;;;;;;;;;;;;;;;26.00;32.99;94169.03;4974066;28;1490;-67
2023/01/27 03:01:39;;;;;;;;;;;;;;;26.01;33.08;94168.81;4974126;28;1512;-67
2023/01/27 03:04:04;;;;;;;;;;;;;;;25.96;32.88;94162.59;4972326;28;1244;-67
2023/01/27 03:06:30;;;;;;;;;;;;;;;25.94;33.22;94152.09;4964578;28;1368;-67
2023/01/27 03:08:55;;;;;;;;;;;;;;;25.95;33.13;94156.38;4973248;28;1898;-67
2023/01/27 03:14:05;;;;;;;;;;;;;;;25.93;33.18;94152.34;4972663;28;1303;-67
2023/01/27 03:19:14;;;;;;;;;;;;;;;25.97;32.96;94140.00;4964727;28;1402;-67
2023/01/27 03:21:40;;;;;;;;;;;;;;;25.97;33.02;94138.13;4984955;28;1715;-67
2023/01/27 03:24:05;;;;;;;;;;;;;;;25.96;33.19;94136.50;4972129;28;1285;-67
2023/01/27 03:26:30;;;;;;;;;;;;;;;25.95;33.11;94137.56;4973954;28;1408;-67
2023/01/27 03:31:39;;;;;;;;;;;;;;;25.98;33.03;94120.13;4973595;28;1548;-67
2023/01/27 03:34:05;;;;;;;;;;;;;;;26.03;33.34;94107.50;4972257;28;1287;-67
2023/01/27 03:47:25;;;;;;;;;;;;;;;25.97;33.28;94091.63;4973818;28;1981;-67
2023/01/27 03:49:51;;;;;;;;;;;;;;;25.98;33.26;94088.66;4973665;28;1466;-67
2023/01/27 03:52:16;;;;;;;;;;;;;;;25.97;33.16;94094.31;4962656;28;1138;-66
2023/01/27 03:54:41;;;;;;;;;;;;;;;25.94;33.08;94092.97;4973467;28;1432;-67
2023/01/27 03:57:07;;;;;;;;;;;;;;;25.95;33.16;94094.56;4974094;28;857;-67
2023/01/27 03:59:32;;;;;;;;;;;;;;;25.99;33.20;94089.50;4972269;28;1250;-69
2023/01/27 04:07:25;;;;;;;;;;;;;;;25.84;33.29;94137.78;4977410;28;1906;-68
2023/01/27 04:09:50;;;;;;;;;;;;;;;25.80;33.30;94145.53;4976694;28;1436;-69
2023/01/27 04:12:16;;;;;;;;;;;;;;;25.77;33.89;94159.47;4975645;28;1219;-68
2023/01/27 04:14:41;;;;;;;;;;;;;;;25.87;33.15;94169.50;4967448;28;1579;-66
2023/01/27 04:17:10;;;;;;;;;;;;;;;25.73;32.29;94174.50;4976663;28;1429;-69
2023/01/27 04:19:35;;;;;;;;;;;;;;;21.69;26.55;94163.06;4991873;28;1433;-69
2023/01/27 04:22:01;;;;;;;;;;;;;;;20.07;27.88;94161.28;4975850;28;1429;-68
2023/01/27 04:24:26;;;;;;;;;;;;;;;19.25;28.33;94158.81;4974381;28;1415;-68
2023/01/27 04:27:00;;;;;;;;;;;;;;;18.59;28.93;94171.50;4952894;28;1383;-70
2023/01/27 04:29:26;;;;;;;;;;;;;;;18.98;28.96;94184.75;4977789;28;1895;-70
2023/01/27 04:31:51;;;;;;;;;;;;;;;18.29;28.74;94202.28;4975877;28;1383;-69
2023/01/27 04:34:17;;;;;;;;;;;;;;;18.24;29.17;94199.44;4975445;28;1281;-70
2023/01/27 04:36:43;;;;;;;;;;;;;;;17.86;29.20;94186.91;4971922;28;1521;-70
2023/01/27 04:39:09;;;;;;;;;;;;;;;17.65;29.92;94186.13;4971522;28;1334;-70
2023/01/27 04:41:34;;;;;;;;;;;;;;;17.57;29.26;94201.44;4991639;28;1239;-69
2023/01/27 04:44:00;;;;;;;;;;;;;;;17.62;29.41;94196.34;4989679;28;1307;-70
2023/01/27 04:46:25;;;;;;;;;;;;;;;17.97;28.99;94184.44;4975045;28;1480;-68
2023/01/27 04:48:51;;;;;;;;;;;;;;;18.55;28.65;94186.22;4965361;28;1960;-69
2023/01/27 04:51:16;;;;;;;;;;;;;;;18.88;28.92;94193.22;4973011;28;1478;-69
2023/01/27 04:53:42;;;;;;;;;;;;;;;19.90;30.02;94193.81;4974550;28;1329;-69
2023/01/27 04:56:15;;;;;;;;;;;;;;;20.81;29.07;94192.13;4968402;28;1424;-68
2023/01/27 04:58:40;;;;;;;;;;;;;;;21.40;28.53;94191.47;4990217;28;1457;-67
2023/01/27 05:01:06;;;;;;;;;;;;;;;21.81;28.49;94197.78;4965373;28;1301;-67
2023/01/27 05:03:31;;;;;;;;;;;;;;;22.09;28.29;94192.53;4965386;28;1516;-67
2023/01/27 05:05:56;;;;;;;;;;;;;;;22.29;28.16;94191.34;4971889;28;1350;-67
2023/01/27 05:08:21;;;;;;;;;;;;;;;22.43;28.29;94196.19;4973587;28;1964;-67
2023/01/27 05:10:47;;;;;;;;;;;;;;;22.58;28.14;94193.00;4969911;28;1358;-73
2023/01/27 05:13:12;;;;;;;;;;;;;;;22.27;28.57;94188.91;4954788;28;1451;-68
2023/01/27 05:15:38;;;;;;;;;;;;;;;22.55;29.64;94179.31;4974206;28;1528;-66
2023/01/27 05:18:03;;;;;;;;;;;;;;;22.76;29.92;94189.31;5005930;28;1285;-66
2023/01/27 05:20:30;;;;;;;;;;;;;;;22.31;29.19;94182.03;4975394;28;1463;-67
2023/01/27 05:23:33;;;;;;;;;;;;;;;22.50;30.88;94176.53;4966242;28;1517;-73
2023/01/27 05:25:42;;;;;;;;;;;;;;;22.69;31.03;94172.63;4975307;28;1448;-68
2023/01/27 05:28:07;;;;;;;;;;;;;;;22.85;30.97;94176.38;5006837;28;1894;-68
2023/01/27 05:30:32;;;;;;;;;;;;;;;22.92;30.86;94166.38;4975198;28;1333;-67
2023/01/27 05:32:57;;;;;;;;;;;;;;;22.96;30.47;94172.88;4990486;28;1298;-68
2023/01/27 05:35:23;;;;;;;;;;;;;;;23.01;30.42;94169.47;4965918;28;1142;-67
2023/01/27 05:37:49;;;;;;;;;;;;;;;23.04;30.28;94175.16;5006906;28;1283;-68
2023/01/27 05:40:14;;;;;;;;;;;;;;;23.08;30.53;94165.63;4975752;28;1008;-68
2023/01/27 05:42:39;;;;;;;;;;;;;;;23.09;30.34;94148.50;4975457;28;862;-68
2023/01/27 05:45:05;;;;;;;;;;;;;;;23.11;30.51;94143.72;4970520;28;973;-68
2023/01/27 05:47:30;;;;;;;;;;;;;;;23.12;30.38;94156.03;4970613;28;1967;-69
2023/01/27 05:49:56;;;;;;;;;;;;;;;23.11;30.52;94156.28;4990192;28;1177;-68
2023/01/27 05:52:21;;;;;;;;;;;;;;;23.13;30.40;94164.88;4975326;28;889;-68
2023/01/27 05:54:46;;;;;;;;;;;;;;;23.11;30.38;94170.47;4975279;28;940;-69
2023/01/27 05:57:11;;;;;;;;;;;;;;;23.09;30.59;94183.28;4965608;28;1057;-68
2023/01/27 05:59:37;;;;;;;;;;;;;;;23.10;30.58;94184.09;4990166;28;1258;-68
2023/01/27 06:02:02;;;;;;;;;;;;;;;23.11;30.64;94175.03;4990098;28;1393;-67
2023/01/27 06:04:27;;;;;;;;;;;;;;;23.09;30.45;94177.94;4975183;28;857;-68
2023/01/27 06:06:52;;;;;;;;;;;;;;;23.11;30.74;94172.34;4975081;28;877;-68
2023/01/27 06:09:18;;;;;;;;;;;;;;;23.12;30.59;94176.63;4965365;28;1948;-68
2023/01/27 06:11:43;;;;;;;;;;;;;;;23.14;30.42;94177.22;4975007;28;877;-67
2023/01/27 06:14:08;;;;;;;;;;;;;;;23.14;30.60;94174.53;4975061;28;845;-68
2023/01/27 06:16:34;;;;;;;;;;;;;;;23.17;30.61;94167.84;4989759;28;1292;-68
2023/01/27 06:18:59;;;;;;;;;;;;;;;23.18;30.57;94177.53;4970275;28;1060;-68
2023/01/27 06:21:24;;;;;;;;;;;;;;;23.20;30.58;94183.47;4969870;28;1173;-69
2023/01/27 06:23:49;;;;;;;;;;;;;;;23.20;30.59;94172.75;4974780;28;877;-69
2023/01/27 06:26:16;;;;;;;;;;;;;;;23.22;30.48;94170.63;4975061;28;790;-69
2023/01/27 06:28:42;;;;;;;;;;;;;;;23.21;30.43;94169.03;4974379;28;1898;-68
2023/01/27 06:31:10;;;;;;;;;;;;;;;23.21;30.53;94167.16;4965189;28;1297;-68
2023/01/27 06:33:36;;;;;;;;;;;;;;;23.23;30.52;94170.41;5006183;28;951;-67
2023/01/27 06:36:02;;;;;;;;;;;;;;;23.24;30.37;94173.88;4989530;28;1204;-68
2023/01/27 06:38:28;;;;;;;;;;;;;;;23.24;30.59;94169.34;4974605;28;873;-67
2023/01/27 06:40:53;;;;;;;;;;;;;;;23.22;30.45;94182.13;5005772;28;1205;-67
2023/01/27 06:43:18;;;;;;;;;;;;;;;23.21;30.63;94185.06;4964998;28;1169;-67
2023/01/27 06:45:43;;;;;;;;;;;;;;;23.21;30.50;94193.91;4974420;28;869;-67
2023/01/27 06:48:09;;;;;;;;;;;;;;;23.25;30.73;94196.91;4974396;28;2000;-68
2023/01/27 06:50:34;;;;;;;;;;;;;;;23.22;30.61;94200.06;4974552;28;914;-68
2023/01/27 06:53:01;;;;;;;;;;;;;;;23.22;30.43;94190.16;5001201;28;1176;-67
2023/01/27 06:55:26;;;;;;;;;;;;;;;23.23;30.67;94199.84;5000908;28;1733;-68
2023/01/27 06:57:52;;;;;;;;;;;;;;;23.24;30.65;94204.13;4974478;28;881;-68
2023/01/27 07:00:17;;;;;;;;;;;;;;;23.25;30.69;94212.97;4974376;28;948;-68
2023/01/27 07:02:43;;;;;;;;;;;;;;;23.25;30.56;94212.97;4974411;28;956;-68
2023/01/27 07:05:08;;;;;;;;;;;;;;;23.22;30.62;94205.41;4965280;28;1153;-67
2023/01/27 07:07:34;;;;;;;;;;;;;;;23.26;30.71;94209.25;4974040;28;1899;-67
2023/01/27 07:09:59;;;;;;;;;;;;;;;23.25;30.56;94204.94;4974553;28;842;-68
2023/01/27 07:12:25;;;;;;;;;;;;;;;23.27;30.60;94205.50;4989153;28;1284;-68
2023/01/27 07:14:50;;;;;;;;;;;;;;;23.26;30.83;94196.69;5005490;28;1199;-68
2023/01/27 07:17:15;;;;;;;;;;;;;;;23.28;30.58;94199.09;4964673;28;1199;-69
2023/01/27 07:19:40;;;;;;;;;;;;;;;23.27;30.78;94200.16;4974190;28;877;-68
2023/01/27 07:22:06;;;;;;;;;;;;;;;23.32;30.51;94197.56;4974285;28;844;-68
2023/01/27 07:24:31;;;;;;;;;;;;;;;23.33;30.68;94208.00;4974119;28;826;-68
2023/01/27 07:26:56;;;;;;;;;;;;;;;23.32;30.46;94201.06;4969582;28;936;-67
2023/01/27 07:29:21;;;;;;;;;;;;;;;23.36;30.74;94198.69;4968935;28;1969;-68
2023/01/27 07:31:47;;;;;;;;;;;;;;;23.39;30.51;94203.56;4973798;28;1267;-68
2023/01/27 07:34:12;;;;;;;;;;;;;;;23.40;30.39;94204.41;4974131;28;876;-68
2023/01/27 07:36:37;;;;;;;;;;;;;;;23.38;30.46;94199.28;4974115;28;931;-68
2023/01/27 07:39:03;;;;;;;;;;;;;;;23.41;30.41;94197.97;4979587;28;1176;-68
2023/01/27 07:41:28;;;;;;;;;;;;;;;23.33;30.32;94204.53;5007393;28;1369;-68
2023/01/27 07:43:53;;;;;;;;;;;;;;;23.30;30.53;94215.72;4992755;28;1314;-68
2023/01/27 07:46:19;;;;;;;;;;;;;;;23.30;30.60;94205.81;4977703;28;877;-68
2023/01/27 07:48:44;;;;;;;;;;;;;;;23.32;30.82;94202.94;4977623;28;1914;-68
2023/01/27 07:51:13;;;;;;;;;;;;;;;23.22;30.84;94208.91;4968179;28;1082;-68
2023/01/27 07:53:38;;;;;;;;;;;;;;;23.15;30.79;94221.63;4977682;28;798;-68
2023/01/27 07:56:04;;;;;;;;;;;;;;;23.20;30.96;94215.56;4977501;28;877;-68
2023/01/27 07:58:29;;;;;;;;;;;;;;;23.23;31.03;94220.44;4977533;28;860;-68
2023/01/27 08:00:54;;;;;;;;;;;;;;;23.18;30.97;94202.41;4975373;28;857;-68
2023/01/27 08:03:21;;;;;;;;;;;;;;;23.08;31.06;94203.06;4985175;28;1219;-68
2023/01/27 08:05:46;;;;;;;;;;;;;;;22.99;31.30;94211.69;4977440;28;810;-68
2023/01/27 08:08:12;;;;;;;;;;;;;;;23.00;31.24;94216.03;4977226;28;1895;-68
2023/01/27 08:10:37;;;;;;;;;;;;;;;22.89;31.26;94199.75;4977312;28;794;-68
2023/01/27 08:13:02;;;;;;;;;;;;;;;22.86;31.61;94204.75;4983286;28;1280;-67
2023/01/27 08:15:28;;;;;;;;;;;;;;;22.81;31.61;94199.31;4976504;28;1050;-68
2023/01/27 08:17:54;;;;;;;;;;;;;;;22.79;31.73;94199.53;4977104;28;802;-68
2023/01/27 08:20:19;;;;;;;;;;;;;;;22.76;31.68;94193.88;4991998;28;1265;-68
2023/01/27 08:22:44;;;;;;;;;;;;;;;22.72;31.82;94204.22;4977049;28;912;-68
2023/01/27 08:25:09;;;;;;;;;;;;;;;22.81;31.65;94212.69;4967386;28;1071;-68
2023/01/27 08:27:35;;;;;;;;;;;;;;;22.71;31.58;94209.81;4976954;28;1906;-69
2023/01/27 08:30:00;;;;;;;;;;;;;;;22.73;31.63;94210.38;4977182;28;861;-68
2023/01/27 08:32:25;;;;;;;;;;;;;;;22.63;31.98;94201.13;4976621;28;1268;-68
2023/01/27 08:34:50;;;;;;;;;;;;;;;22.64;31.95;94200.06;4976850;28;936;-68
2023/01/27 08:37:16;;;;;;;;;;;;;;;22.66;31.87;94208.66;4967189;28;1126;-68
2023/01/27 08:39:41;;;;;;;;;;;;;;;22.60;31.90;94209.63;4976674;28;893;-68
2023/01/27 08:42:06;;;;;;;;;;;;;;;22.60;31.87;94227.53;4976665;28;907;-68
2023/01/27 08:44:32;;;;;;;;;;;;;;;22.61;31.90;94213.09;4991570;28;1590;-67
2023/01/27 08:46:57;;;;;;;;;;;;;;;22.54;32.09;94213.25;4971848;28;1157;-68
2023/01/27 08:49:22;;;;;;;;;;;;;;;22.54;31.88;94215.09;4971747;28;1910;-68
2023/01/27 08:51:47;;;;;;;;;;;;;;;22.49;32.22;94221.16;4991307;28;1223;-67
2023/01/27 08:54:13;;;;;;;;;;;;;;;22.50;32.19;94216.63;4976820;28;861;-67
2023/01/27 08:56:38;;;;;;;;;;;;;;;22.43;32.08;94208.75;4976446;28;920;-67
2023/01/27 08:59:03;;;;;;;;;;;;;;;22.50;32.08;94209.41;4966905;28;1024;-68
2023/01/27 09:01:28;;;;;;;;;;;;;;;22.48;32.08;94213.38;4976346;28;881;-67
2023/01/27 09:03:54;;;;;;;;;;;;;;;22.48;32.20;94211.50;4976298;28;896;-68
2023/01/27 09:06:20;;;;;;;;;;;;;;;22.43;32.41;94208.75;4976342;28;940;-67
2023/01/27 09:09:07;;;;;;;;;;;;;;;22.47;32.29;94203.72;4976133;28;1903;-68
2023/01/27 09:11:31;;;;;;;;;;;;;;;22.55;32.09;94209.53;4968821;28;1258;-68
2023/01/27 09:13:56;;;;;;;;;;;;;;;;;;4976152;28;826;-67
2023/01/27 09:16:21;;;;;;;;;;;;;;;22.64;31.73;94216.09;4976095;28;871;-68
2023/01/27 09:18:47;;;;;;;;;;;;;;;22.68;31.97;94213.75;4976066;28;794;-68
2023/01/27 09:21:12;;;;;;;;;;;;;;;22.61;31.99;94208.56;4982045;28;1239;-67
2023/01/27 09:23:37;;;;;;;;;;;;;;;22.65;31.83;94199.03;4975049;28;945;-68
2023/01/27 09:26:02;;;;;;;;;;;;;;;22.70;32.06;94197.50;4990773;28;1188;-68
2023/01/27 09:28:28;;;;;;;;;;;;;;;22.79;31.82;94198.72;4976157;28;1906;-68
2023/01/27 09:30:57;;;;;;;;;;;;;;;22.84;31.47;94207.66;4990470;28;1366;-69
2023/01/27 09:33:23;;;;;;;;;;;;;;;22.88;31.79;94197.28;4966168;28;1163;-68
2023/01/27 09:35:51;;;;;;;;;;;;;;;22.88;31.63;94190.09;4975671;28;939;-69
2023/01/27 09:38:19;;;;;;;;;;;;;;;22.91;31.50;94186.16;5006902;28;1211;-69
2023/01/27 09:40:44;;;;;;;;;;;;;;;23.03;31.25;94178.09;4975596;28;921;-69
2023/01/27 09:43:19;;;;;;;;;;;;;;;23.07;31.19;94177.34;4973389;28;873;-68
2023/01/27 09:45:50;;;;;;;;;;;;;;;23.15;31.04;94170.00;5001686;28;1191;-69
2023/01/27 09:48:34;;;;;;;;;;;;;;;23.11;31.19;94178.50;4975463;28;1899;-69
2023/01/27 09:51:04;;;;;;;;;;;;;;;23.10;30.87;94174.19;4975362;28;809;-68
2023/01/27 09:53:42;;;;;;;;;;;;;;;23.07;31.24;94163.16;5006727;28;1536;-69
2023/01/27 09:56:27;;;;;;;;;;;;;;;23.05;31.17;94150.03;4980551;28;1187;-69
2023/01/27 09:59:03;;;;;;;;;;;;;;;23.08;31.25;94154.06;4975189;28;1042;-69
2023/01/27 10:01:43;;;;;;;;;;;;;;;23.09;31.05;94150.38;4975252;28;794;-68
2023/01/27 10:04:24;;;;;;;;;;;;;;;23.05;31.07;94158.06;4974703;28;966;-69
2023/01/27 10:07:08;;;;;;;;;;;;;;;23.05;31.23;94150.03;4965567;28;1088;-68
2023/01/27 10:09:49;;;;;;;;;;;;;;;23.04;31.04;94155.63;4989838;28;1961;-69
2023/01/27 10:12:33;;;;;;;;;;;;;;;23.06;31.19;94148.97;4989997;28;1303;-69
2023/01/27 10:15:24;;;;;;;;;;;;;;;23.02;31.29;94147.81;4989851;28;1318;-69
2023/01/27 10:17:53;;;;;;;;;;;;;;;23.05;31.24;94150.03;4970817;28;1043;-68
2023/01/27 10:20:33;;;;;;;;;;;;;;;23.04;31.23;94148.41;4970843;28;1317;-68
2023/01/27 10:23:01;;;;;;;;;;;;;;;23.04;31.00;94148.41;4974867;28;790;-69
2023/01/27 10:25:47;;;;;;;;;;;;;;;23.04;31.28;94150.28;4975031;28;865;-69
2023/01/27 10:28:14;;;;;;;;;;;;;;;23.06;30.96;94148.97;4989637;28;1902;-69
2023/01/27 10:30:45;;;;;;;;;;;;;;;23.04;30.94;94148.41;4964753;28;1359;-68
2023/01/27 10:33:13;;;;;;;;;;;;;;;23.07;31.14;94144.44;4989539;28;1344;-69
2023/01/27 10:35:58;;;;;;;;;;;;;;;23.06;30.99;94140.97;4974670;28;861;-69
2023/01/27 10:38:30;;;;;;;;;;;;;;;23.05;30.97;94143.84;4974435;28;1070;-69
2023/01/27 10:41:05;;;;;;;;;;;;;;;23.06;31.18;94151.66;4979968;28;1320;-68
2023/01/27 10:43:30;;;;;;;;;;;;;;;23.06;31.10;94145.50;5006035;28;1195;-69
2023/01/27 10:46:00;;;;;;;;;;;;;;;23.05;31.17;94142.03;4974544;28;860;-69
2023/01/27 10:48:44;;;;;;;;;;;;;;;23.06;31.10;94146.31;4989257;28;1914;-69
2023/01/27 10:51:20;;;;;;;;;;;;;;;23.05;30.99;94139.34;4974599;28;782;-69
2023/01/27 10:53:48;;;;;;;;;;;;;;;23.07;31.00;94134.53;4967191;28;1159;-69
2023/01/27 10:56:26;;;;;;;;;;;;;;;23.08;31.01;94133.50;4974477;28;926;-69
2023/01/27 10:58:59;;;;;;;;;;;;;;;23.05;31.16;94138.50;4974435;28;884;-69
2023/01/27 11:01:29;;;;;;;;;;;;;;;23.07;31.20;94147.13;4974678;28;885;-68
2023/01/27 11:04:32;;;;;;;;;;;;;;;23.07;30.98;94137.22;4979569;28;1231;-69
2023/01/27 11:06:58;;;;;;;;;;;;;;;23.07;30.92;94126.50;4991592;28;1345;-68
2023/01/27 11:09:31;;;;;;;;;;;;;;;23.09;31.13;94129.78;4991431;28;2019;-69
2023/01/27 11:12:03;;;;;;;;;;;;;;;23.08;30.88;94121.97;4982725;28;932;-69
2023/01/27 11:14:30;;;;;;;;;;;;;;;23.07;30.92;94120.38;4969862;28;1107;-68
2023/01/27 11:17:14;;;;;;;;;;;;;;;23.10;31.06;94118.00;4972737;28;1180;-69
2023/01/27 11:19:43;;;;;;;;;;;;;;;23.09;30.92;94121.75;4978190;28;949;-69
2023/01/27 11:22:15;;;;;;;;;;;;;;;23.09;30.93;94116.41;4978222;28;802;-69
2023/01/27 11:24:56;;;;;;;;;;;;;;;23.08;31.02;94117.47;4978112;28;881;-68
2023/01/27 11:27:34;;;;;;;;;;;;;;;23.10;30.89;94114.53;4968404;28;1884;-68
2023/01/27 11:30:12;;;;;;;;;;;;;;;23.11;31.08;94111.63;4978105;28;802;-68
2023/01/27 11:32:37;;;;;;;;;;;;;;;23.09;30.83;94108.38;4978103;28;948;-68
2023/01/27 11:35:10;;;;;;;;;;;;;;;23.08;31.04;94117.47;4977849;28;837;-68
2023/01/27 11:37:41;;;;;;;;;;;;;;;23.10;30.90;94115.31;4968532;28;1138;-67
2023/01/27 11:40:16;;;;;;;;;;;;;;;23.10;31.11;94118.00;4992588;28;1201;-68
2023/01/27 11:42:41;;;;;;;;;;;;;;;23.10;31.00;94109.97;4977779;28;871;-68
2023/01/27 11:45:12;;;;;;;;;;;;;;;23.11;30.84;94110.81;4977817;28;868;-68
2023/01/27 11:47:39;;;;;;;;;;;;;;;23.09;31.14;94108.38;4977822;28;1911;-68
2023/01/27 11:50:05;;;;;;;;;;;;;;;23.10;30.81;94107.31;4968138;28;1088;-68
2023/01/27 11:52:31;;;;;;;;;;;;;;;23.10;30.85;94103.81;4977546;28;1083;-68
2023/01/27 11:55:04;;;;;;;;;;;;;;;23.10;30.90;94104.63;4992489;28;1379;-68
2023/01/27 11:57:29;;;;;;;;;;;;;;;23.11;31.00;94102.78;4992366;28;1194;-69
2023/01/27 12:00:18;;;;;;;;;;;;;;;23.12;30.95;94096.38;4972810;28;1099;-68
2023/01/27 12:02:46;;;;;;;;;;;;;;;23.10;30.99;94093.94;4976636;28;1270;-68
2023/01/27 12:05:14;;;;;;;;;;;;;;;23.09;31.04;94092.31;5008643;28;1329;-68
2023/01/27 12:07:44;;;;;;;;;;;;;;;23.11;31.01;94095.56;4977394;28;1982;-68
2023/01/27 12:10:24;;;;;;;;;;;;;;;23.14;30.96;94099.63;4977255;28;973;-68
2023/01/27 12:12:49;;;;;;;;;;;;;;;23.10;30.90;94104.63;4967532;28;983;-68
2023/01/27 12:15:15;;;;;;;;;;;;;;;23.11;31.00;94098.25;4977109;28;873;-68
2023/01/27 12:17:42;;;;;;;;;;;;;;;23.13;30.87;94098.78;5008492;28;1607;-69
2023/01/27 12:20:25;;;;;;;;;;;;;;;23.11;30.87;94089.41;4977538;28;857;-68
2023/01/27 12:22:52;;;;;;;;;;;;;;;23.10;30.89;94096.59;4972153;28;1041;-69
2023/01/27 12:25:23;;;;;;;;;;;;;;;23.11;31.01;94103.59;4972958;28;1124;-68
2023/01/27 12:27:51;;;;;;;;;;;;;;;23.10;30.99;94104.63;5007672;28;1902;-69
2023/01/27 12:30:20;;;;;;;;;;;;;;;23.11;30.87;94098.25;5007929;28;1316;-68
2023/01/27 12:32:46;;;;;;;;;;;;;;;23.12;30.84;94097.19;4977059;28;853;-68
2023/01/27 12:35:17;;;;;;;;;;;;;;;23.09;30.87;94103.03;4967279;28;1030;-67
2023/01/27 12:37:43;;;;;;;;;;;;;;;23.10;31.03;94101.94;4976738;28;896;-69
2023/01/27 12:40:17;;;;;;;;;;;;;;;23.11;30.81;94105.47;4976983;28;954;-68
2023/01/27 12:42:46;;;;;;;;;;;;;;;23.10;30.91;94095.81;4976844;28;921;-68
2023/01/27 12:45:17;;;;;;;;;;;;;;;23.11;30.91;94092.09;4972400;28;1043;-67
2023/01/27 12:47:53;;;;;;;;;;;;;;;23.11;31.00;94108.13;4986533;28;1960;-68
2023/01/27 12:50:20;;;;;;;;;;;;;;;23.10;30.79;94104.63;4976651;28;916;-68
2023/01/27 12:53:01;;;;;;;;;;;;;;;23.10;30.88;94104.63;4976829;28;1016;-68
2023/01/27 12:55:27;;;;;;;;;;;;;;;23.10;30.84;94104.63;4976582;28;1019;-68
2023/01/27 12:57:52;;;;;;;;;;;;;;;23.07;31.13;94105.13;4967020;28;1062;-68
2023/01/27 13:00:18;;;;;;;;;;;;;;;23.10;31.14;94103.81;4976525;28;805;-68
2023/01/27 13:02:43;;;;;;;;;;;;;;;23.08;31.01;94093.38;4976720;28;869;-68
2023/01/27 13:05:14;;;;;;;;;;;;;;;23.09;30.99;94092.31;4976330;28;806;-68
2023/01/27 13:07:44;;;;;;;;;;;;;;;23.10;30.99;94093.94;4975738;28;1958;-67
2023/01/27 13:10:19;;;;;;;;;;;;;;;23.08;30.88;94101.41;4969756;28;1142;-68
2023/01/27 13:12:53;;;;;;;;;;;;;;;23.08;31.04;94106.75;4976244;28;924;-68
2023/01/27 13:15:22;;;;;;;;;;;;;;;23.07;31.19;94098.97;4976128;28;861;-68
2023/01/27 13:17:51;;;;;;;;;;;;;;;23.08;30.72;94096.06;4976078;28;913;-68
2023/01/27 13:20:38;;;;;;;;;;;;;;;23.07;31.07;94099.75;4966382;28;1063;-68
2023/01/27 13:23:15;;;;;;;;;;;;;;;23.05;31.06;94104.56;4975984;28;952;-68
2023/01/27 13:25:50;;;;;;;;;;;;;;;23.05;30.94;94107.25;4975954;28;789;-68
2023/01/27 13:28:21;;;;;;;;;;;;;;;23.05;31.03;94107.25;4976105;28;1970;-69
2023/01/27 13:30:49;;;;;;;;;;;;;;;23.08;31.05;94104.09;4971087;28;1387;-68
2023/01/27 13:33:39;;;;;;;;;;;;;;;23.07;30.89;94099.75;4970878;28;1247;-68
2023/01/27 13:36:20;;;;;;;;;;;;;;;23.06;31.04;94105.38;4975807;28;826;-68
2023/01/27 13:38:52;;;;;;;;;;;;;;;23.07;31.02;94099.75;4974859;28;830;-69